Mar del Tuyu, Argentina
Current Conditions -  °F | °C
As of 1:00 AM on Wednesday 26 Nov 2014 (Local Time) from SAZM Reporting Station
Clear Clear  
Wind Chill: 11°   Ceiling: Unl
Heat Index: 11°   Visibility: 6mi
Dew Point:   Wind: 5mph
Humidity: 82%   Direction: 340°NNW
Pressure: 29.91"   Gusts: NA
Location:  36.55°S, 56.68°W
Report Text: SAZM 260400Z 34004KT CAVOK 11/08 Q1013
Loading
Personal Weather Stations






























Interactive Weather Map New forecast layout! Learn more

10-Day Weather Forecast

Advertisements
Track Severe Weather on mobile